sensor_id;sensor_type;location;lat;lon;timestamp;P1;durP1;ratioP1;P2;durP2;ratioP2
19358;SDS011;9815;52.334;20.890;2022-09-25T00:01:23;26.33;;;14.67;;
19358;SDS011;9815;52.334;20.890;2022-09-25T00:03:53;29.43;;;14.67;;
19358;SDS011;9815;52.334;20.890;2022-09-25T00:06:22;27.10;;;15.07;;
19358;SDS011;9815;52.334;20.890;2022-09-25T00:08:51;28.13;;;15.47;;
19358;SDS011;9815;52.334;20.890;2022-09-25T00:11:21;28.43;;;15.30;;
19358;SDS011;9815;52.334;20.890;2022-09-25T00:13:51;30.23;;;15.90;;
19358;SDS011;9815;52.334;20.890;2022-09-25T00:16:20;31.10;;;15.70;;
19358;SDS011;9815;52.334;20.890;2022-09-25T00:18:50;27.03;;;15.47;;
19358;SDS011;9815;52.334;20.890;2022-09-25T00:21:37;28.60;;;14.53;;
19358;SDS011;9815;52.334;20.890;2022-09-25T00:24:06;29.63;;;14.67;;
19358;SDS011;9815;52.334;20.890;2022-09-25T00:26:37;28.00;;;14.50;;
19358;SDS011;9815;52.334;20.890;2022-09-25T00:29:09;28.47;;;14.33;;
19358;SDS011;9815;52.334;20.890;2022-09-25T00:31:41;23.27;;;13.50;;
19358;SDS011;9815;52.334;20.890;2022-09-25T00:34:10;28.53;;;14.40;;
19358;SDS011;9815;52.334;20.890;2022-09-25T00:36:39;27.43;;;14.03;;
19358;SDS011;9815;52.334;20.890;2022-09-25T00:39:08;28.70;;;14.20;;
19358;SDS011;9815;52.334;20.890;2022-09-25T00:41:36;26.50;;;14.37;;
19358;SDS011;9815;52.334;20.890;2022-09-25T00:44:42;26.23;;;14.33;;
19358;SDS011;9815;52.334;20.890;2022-09-25T00:47:17;29.03;;;14.97;;
19358;SDS011;9815;52.334;20.890;2022-09-25T00:49:49;28.17;;;14.80;;
19358;SDS011;9815;52.334;20.890;2022-09-25T00:52:19;27.13;;;13.27;;
19358;SDS011;9815;52.334;20.890;2022-09-25T00:54:51;28.33;;;13.77;;
19358;SDS011;9815;52.334;20.890;2022-09-25T00:57:22;30.27;;;14.87;;
19358;SDS011;9815;52.334;20.890;2022-09-25T00:59:54;28.40;;;14.20;;
19358;SDS011;9815;52.334;20.890;2022-09-25T01:02:25;28.63;;;14.83;;
19358;SDS011;9815;52.334;20.890;2022-09-25T01:04:55;27.00;;;13.60;;
19358;SDS011;9815;52.334;20.890;2022-09-25T01:07:28;25.90;;;14.67;;
19358;SDS011;9815;52.334;20.890;2022-09-25T01:09:58;31.90;;;15.90;;
19358;SDS011;9815;52.334;20.890;2022-09-25T01:12:27;29.00;;;16.07;;
19358;SDS011;9815;52.334;20.890;2022-09-25T01:14:56;33.50;;;17.03;;
19358;SDS011;9815;52.334;20.890;2022-09-25T01:17:26;33.77;;;17.30;;
19358;SDS011;9815;52.334;20.890;2022-09-25T01:20:02;32.37;;;16.73;;
19358;SDS011;9815;52.334;20.890;2022-09-25T01:22:45;33.07;;;17.67;;
19358;SDS011;9815;52.334;20.890;2022-09-25T01:25:31;29.47;;;16.47;;
19358;SDS011;9815;52.334;20.890;2022-09-25T01:28:17;34.13;;;17.97;;
19358;SDS011;9815;52.334;20.890;2022-09-25T01:31:00;29.77;;;17.10;;
19358;SDS011;9815;52.334;20.890;2022-09-25T01:33:32;33.90;;;17.93;;
19358;SDS011;9815;52.334;20.890;2022-09-25T01:36:08;33.83;;;18.70;;
19358;SDS011;9815;52.334;20.890;2022-09-25T01:38:44;38.07;;;18.67;;
19358;SDS011;9815;52.334;20.890;2022-09-25T01:41:19;37.60;;;18.57;;
19358;SDS011;9815;52.334;20.890;2022-09-25T01:43:50;33.50;;;17.77;;
19358;SDS011;9815;52.334;20.890;2022-09-25T01:46:26;41.63;;;18.63;;
19358;SDS011;9815;52.334;20.890;2022-09-25T01:48:56;35.00;;;18.70;;
19358;SDS011;9815;52.334;20.890;2022-09-25T01:51:29;36.10;;;19.03;;
19358;SDS011;9815;52.334;20.890;2022-09-25T01:54:02;34.67;;;18.50;;
19358;SDS011;9815;52.334;20.890;2022-09-25T01:56:37;41.73;;;20.07;;
19358;SDS011;9815;52.334;20.890;2022-09-25T01:59:12;35.20;;;18.87;;
19358;SDS011;9815;52.334;20.890;2022-09-25T02:01:45;35.90;;;19.27;;
19358;SDS011;9815;52.334;20.890;2022-09-25T02:04:15;37.10;;;19.23;;
19358;SDS011;9815;52.334;20.890;2022-09-25T02:06:48;31.57;;;18.67;;
19358;SDS011;9815;52.334;20.890;2022-09-25T02:09:19;32.60;;;17.70;;
19358;SDS011;9815;52.334;20.890;2022-09-25T02:11:50;31.07;;;17.70;;
19358;SDS011;9815;52.334;20.890;2022-09-25T02:14:25;34.63;;;18.97;;
19358;SDS011;9815;52.334;20.890;2022-09-25T02:17:00;37.53;;;18.93;;
19358;SDS011;9815;52.334;20.890;2022-09-25T02:19:35;34.73;;;17.87;;
19358;SDS011;9815;52.334;20.890;2022-09-25T02:22:21;33.20;;;17.23;;
19358;SDS011;9815;52.334;20.890;2022-09-25T02:24:56;30.93;;;17.57;;
19358;SDS011;9815;52.334;20.890;2022-09-25T02:27:30;32.33;;;17.20;;
19358;SDS011;9815;52.334;20.890;2022-09-25T02:29:59;33.10;;;17.17;;
19358;SDS011;9815;52.334;20.890;2022-09-25T02:32:30;36.33;;;18.73;;
19358;SDS011;9815;52.334;20.890;2022-09-25T02:34:59;38.60;;;18.23;;
19358;SDS011;9815;52.334;20.890;2022-09-25T02:37:28;37.70;;;19.67;;
19358;SDS011;9815;52.334;20.890;2022-09-25T02:39:57;32.57;;;17.90;;
19358;SDS011;9815;52.334;20.890;2022-09-25T02:42:30;34.20;;;18.77;;
19358;SDS011;9815;52.334;20.890;2022-09-25T02:45:06;34.07;;;18.50;;
19358;SDS011;9815;52.334;20.890;2022-09-25T02:47:43;38.87;;;18.97;;
19358;SDS011;9815;52.334;20.890;2022-09-25T02:50:22;35.97;;;19.87;;
19358;SDS011;9815;52.334;20.890;2022-09-25T02:52:57;41.63;;;19.30;;
19358;SDS011;9815;52.334;20.890;2022-09-25T02:55:33;31.87;;;17.63;;
19358;SDS011;9815;52.334;20.890;2022-09-25T02:58:07;35.47;;;19.43;;
19358;SDS011;9815;52.334;20.890;2022-09-25T03:00:40;30.53;;;18.27;;
19358;SDS011;9815;52.334;20.890;2022-09-25T03:03:14;40.13;;;19.07;;
19358;SDS011;9815;52.334;20.890;2022-09-25T03:05:45;33.10;;;17.40;;
19358;SDS011;9815;52.334;20.890;2022-09-25T03:08:15;37.37;;;18.47;;
19358;SDS011;9815;52.334;20.890;2022-09-25T03:11:01;35.27;;;18.10;;
19358;SDS011;9815;52.334;20.890;2022-09-25T03:13:30;30.90;;;17.33;;
19358;SDS011;9815;52.334;20.890;2022-09-25T03:16:02;35.67;;;18.33;;
19358;SDS011;9815;52.334;20.890;2022-09-25T03:18:35;33.80;;;17.30;;
19358;SDS011;9815;52.334;20.890;2022-09-25T03:21:03;31.93;;;17.67;;
19358;SDS011;9815;52.334;20.890;2022-09-25T03:23:32;29.50;;;17.37;;
19358;SDS011;9815;52.334;20.890;2022-09-25T03:26:00;30.97;;;17.47;;
19358;SDS011;9815;52.334;20.890;2022-09-25T03:28:30;31.13;;;17.97;;
19358;SDS011;9815;52.334;20.890;2022-09-25T03:30:59;29.30;;;18.07;;
19358;SDS011;9815;52.334;20.890;2022-09-25T03:33:32;30.23;;;16.37;;
19358;SDS011;9815;52.334;20.890;2022-09-25T03:36:03;30.97;;;17.47;;
19358;SDS011;9815;52.334;20.890;2022-09-25T03:38:33;37.13;;;17.90;;
19358;SDS011;9815;52.334;20.890;2022-09-25T03:41:02;32.80;;;18.23;;
19358;SDS011;9815;52.334;20.890;2022-09-25T03:43:34;31.87;;;18.00;;
19358;SDS011;9815;52.334;20.890;2022-09-25T03:46:02;30.83;;;17.00;;
19358;SDS011;9815;52.334;20.890;2022-09-25T03:48:31;30.73;;;18.63;;
19358;SDS011;9815;52.334;20.890;2022-09-25T03:50:59;37.00;;;18.73;;
19358;SDS011;9815;52.334;20.890;2022-09-25T03:53:29;36.50;;;20.00;;
19358;SDS011;9815;52.334;20.890;2022-09-25T03:55:58;37.10;;;20.03;;
19358;SDS011;9815;52.334;20.890;2022-09-25T03:58:27;37.23;;;19.10;;
19358;SDS011;9815;52.334;20.890;2022-09-25T04:00:56;37.03;;;18.37;;
19358;SDS011;9815;52.334;20.890;2022-09-25T04:03:24;36.53;;;18.73;;
19358;SDS011;9815;52.334;20.890;2022-09-25T04:05:54;33.60;;;19.13;;
19358;SDS011;9815;52.334;20.890;2022-09-25T04:08:23;36.17;;;18.43;;
19358;SDS011;9815;52.334;20.890;2022-09-25T04:10:54;35.70;;;20.40;;
19358;SDS011;9815;52.334;20.890;2022-09-25T04:13:25;40.00;;;23.37;;
19358;SDS011;9815;52.334;20.890;2022-09-25T04:15:55;42.63;;;24.80;;
19358;SDS011;9815;52.334;20.890;2022-09-25T04:18:24;52.77;;;26.43;;
19358;SDS011;9815;52.334;20.890;2022-09-25T04:20:56;45.60;;;26.80;;
19358;SDS011;9815;52.334;20.890;2022-09-25T04:23:25;46.93;;;26.57;;
19358;SDS011;9815;52.334;20.890;2022-09-25T04:25:54;43.47;;;24.90;;
19358;SDS011;9815;52.334;20.890;2022-09-25T04:28:23;41.63;;;23.37;;
19358;SDS011;9815;52.334;20.890;2022-09-25T04:30:51;41.33;;;22.27;;
19358;SDS011;9815;52.334;20.890;2022-09-25T04:33:20;38.07;;;20.67;;
19358;SDS011;9815;52.334;20.890;2022-09-25T04:36:05;43.13;;;21.77;;
19358;SDS011;9815;52.334;20.890;2022-09-25T04:38:34;40.23;;;20.80;;
19358;SDS011;9815;52.334;20.890;2022-09-25T04:41:04;35.83;;;20.77;;
19358;SDS011;9815;52.334;20.890;2022-09-25T04:43:33;39.00;;;21.50;;
19358;SDS011;9815;52.334;20.890;2022-09-25T04:46:02;35.03;;;20.63;;
19358;SDS011;9815;52.334;20.890;2022-09-25T04:48:31;38.53;;;20.67;;
19358;SDS011;9815;52.334;20.890;2022-09-25T04:51:01;39.03;;;21.73;;
19358;SDS011;9815;52.334;20.890;2022-09-25T04:53:30;38.73;;;21.17;;
19358;SDS011;9815;52.334;20.890;2022-09-25T04:56:01;38.73;;;21.50;;
19358;SDS011;9815;52.334;20.890;2022-09-25T04:58:33;39.87;;;22.60;;
19358;SDS011;9815;52.334;20.890;2022-09-25T05:01:01;40.47;;;22.90;;
19358;SDS011;9815;52.334;20.890;2022-09-25T05:03:30;43.50;;;21.50;;
19358;SDS011;9815;52.334;20.890;2022-09-25T05:05:58;38.10;;;21.33;;
19358;SDS011;9815;52.334;20.890;2022-09-25T05:08:27;38.30;;;21.73;;
19358;SDS011;9815;52.334;20.890;2022-09-25T05:10:55;39.97;;;21.77;;
19358;SDS011;9815;52.334;20.890;2022-09-25T05:13:23;38.73;;;22.40;;
19358;SDS011;9815;52.334;20.890;2022-09-25T05:15:52;45.83;;;23.10;;
19358;SDS011;9815;52.334;20.890;2022-09-25T05:18:22;47.57;;;24.47;;
19358;SDS011;9815;52.334;20.890;2022-09-25T05:20:50;49.47;;;24.43;;
19358;SDS011;9815;52.334;20.890;2022-09-25T05:23:20;50.07;;;24.77;;
19358;SDS011;9815;52.334;20.890;2022-09-25T05:25:52;56.00;;;25.57;;
19358;SDS011;9815;52.334;20.890;2022-09-25T05:28:23;55.17;;;26.37;;
19358;SDS011;9815;52.334;20.890;2022-09-25T05:30:53;56.93;;;27.20;;
19358;SDS011;9815;52.334;20.890;2022-09-25T05:33:22;52.37;;;25.60;;
19358;SDS011;9815;52.334;20.890;2022-09-25T05:35:50;59.77;;;28.07;;
19358;SDS011;9815;52.334;20.890;2022-09-25T05:38:18;63.87;;;27.87;;
19358;SDS011;9815;52.334;20.890;2022-09-25T05:40:46;59.77;;;28.23;;
19358;SDS011;9815;52.334;20.890;2022-09-25T05:43:15;60.60;;;27.73;;
19358;SDS011;9815;52.334;20.890;2022-09-25T05:45:43;62.07;;;27.33;;
19358;SDS011;9815;52.334;20.890;2022-09-25T05:48:20;60.67;;;28.07;;
19358;SDS011;9815;52.334;20.890;2022-09-25T05:50:51;57.23;;;27.07;;
19358;SDS011;9815;52.334;20.890;2022-09-25T05:53:20;53.83;;;27.83;;
19358;SDS011;9815;52.334;20.890;2022-09-25T05:55:49;59.23;;;28.10;;
19358;SDS011;9815;52.334;20.890;2022-09-25T05:58:17;59.13;;;29.03;;
19358;SDS011;9815;52.334;20.890;2022-09-25T06:00:46;47.53;;;27.30;;
19358;SDS011;9815;52.334;20.890;2022-09-25T06:03:14;52.43;;;28.37;;
19358;SDS011;9815;52.334;20.890;2022-09-25T06:05:44;55.63;;;30.03;;
19358;SDS011;9815;52.334;20.890;2022-09-25T06:08:13;58.50;;;27.63;;
19358;SDS011;9815;52.334;20.890;2022-09-25T06:10:41;52.80;;;28.27;;
19358;SDS011;9815;52.334;20.890;2022-09-25T06:13:09;51.70;;;29.23;;
19358;SDS011;9815;52.334;20.890;2022-09-25T06:15:38;51.07;;;28.53;;
19358;SDS011;9815;52.334;20.890;2022-09-25T06:18:07;49.33;;;26.47;;
19358;SDS011;9815;52.334;20.890;2022-09-25T06:20:36;50.20;;;27.37;;
19358;SDS011;9815;52.334;20.890;2022-09-25T06:23:05;47.57;;;25.77;;
19358;SDS011;9815;52.334;20.890;2022-09-25T06:25:33;47.43;;;26.50;;
19358;SDS011;9815;52.334;20.890;2022-09-25T06:28:02;46.47;;;25.53;;
19358;SDS011;9815;52.334;20.890;2022-09-25T06:30:32;50.10;;;27.67;;
19358;SDS011;9815;52.334;20.890;2022-09-25T06:33:01;48.43;;;27.07;;
19358;SDS011;9815;52.334;20.890;2022-09-25T06:35:35;48.00;;;28.00;;
19358;SDS011;9815;52.334;20.890;2022-09-25T06:38:08;51.73;;;29.83;;
19358;SDS011;9815;52.334;20.890;2022-09-25T06:40:37;55.63;;;30.37;;
19358;SDS011;9815;52.334;20.890;2022-09-25T06:43:08;51.60;;;28.17;;
19358;SDS011;9815;52.334;20.890;2022-09-25T06:45:37;50.07;;;26.73;;
19358;SDS011;9815;52.334;20.890;2022-09-25T06:48:07;44.13;;;25.43;;
19358;SDS011;9815;52.334;20.890;2022-09-25T06:50:38;47.57;;;24.87;;
19358;SDS011;9815;52.334;20.890;2022-09-25T06:53:09;37.87;;;23.20;;
19358;SDS011;9815;52.334;20.890;2022-09-25T06:55:38;37.93;;;23.17;;
19358;SDS011;9815;52.334;20.890;2022-09-25T06:58:07;39.63;;;22.40;;
19358;SDS011;9815;52.334;20.890;2022-09-25T07:00:38;40.53;;;23.17;;
19358;SDS011;9815;52.334;20.890;2022-09-25T07:03:06;39.53;;;22.80;;
19358;SDS011;9815;52.334;20.890;2022-09-25T07:05:52;35.07;;;20.50;;
19358;SDS011;9815;52.334;20.890;2022-09-25T07:08:21;36.77;;;21.17;;
19358;SDS011;9815;52.334;20.890;2022-09-25T07:10:51;38.50;;;20.57;;
19358;SDS011;9815;52.334;20.890;2022-09-25T07:13:20;35.57;;;20.37;;
19358;SDS011;9815;52.334;20.890;2022-09-25T07:15:50;36.63;;;20.43;;
19358;SDS011;9815;52.334;20.890;2022-09-25T07:18:19;35.47;;;20.27;;
19358;SDS011;9815;52.334;20.890;2022-09-25T07:20:48;35.10;;;20.23;;
19358;SDS011;9815;52.334;20.890;2022-09-25T07:23:17;31.87;;;20.10;;
19358;SDS011;9815;52.334;20.890;2022-09-25T07:25:48;35.00;;;20.57;;
19358;SDS011;9815;52.334;20.890;2022-09-25T07:28:16;32.07;;;19.60;;
19358;SDS011;9815;52.334;20.890;2022-09-25T07:30:45;34.07;;;19.20;;
19358;SDS011;9815;52.334;20.890;2022-09-25T07:33:14;34.73;;;19.00;;
19358;SDS011;9815;52.334;20.890;2022-09-25T07:35:43;36.97;;;19.73;;
19358;SDS011;9815;52.334;20.890;2022-09-25T07:38:11;32.73;;;18.73;;
19358;SDS011;9815;52.334;20.890;2022-09-25T07:40:39;31.53;;;18.03;;
19358;SDS011;9815;52.334;20.890;2022-09-25T07:43:08;29.30;;;18.60;;
19358;SDS011;9815;52.334;20.890;2022-09-25T07:45:37;28.47;;;17.33;;
19358;SDS011;9815;52.334;20.890;2022-09-25T07:48:05;26.93;;;15.97;;
19358;SDS011;9815;52.334;20.890;2022-09-25T07:50:33;33.10;;;16.47;;
19358;SDS011;9815;52.334;20.890;2022-09-25T07:53:01;32.30;;;16.33;;
19358;SDS011;9815;52.334;20.890;2022-09-25T07:55:29;27.70;;;15.97;;
19358;SDS011;9815;52.334;20.890;2022-09-25T07:57:57;28.30;;;15.90;;
19358;SDS011;9815;52.334;20.890;2022-09-25T08:00:27;25.83;;;15.50;;
19358;SDS011;9815;52.334;20.890;2022-09-25T08:02:55;25.17;;;14.53;;
19358;SDS011;9815;52.334;20.890;2022-09-25T08:05:24;23.37;;;13.37;;
19358;SDS011;9815;52.334;20.890;2022-09-25T08:07:53;24.30;;;14.77;;
19358;SDS011;9815;52.334;20.890;2022-09-25T08:10:22;22.70;;;13.53;;
19358;SDS011;9815;52.334;20.890;2022-09-25T08:12:50;20.57;;;13.30;;
19358;SDS011;9815;52.334;20.890;2022-09-25T08:15:19;30.80;;;12.60;;
19358;SDS011;9815;52.334;20.890;2022-09-25T08:17:48;21.43;;;12.90;;
19358;SDS011;9815;52.334;20.890;2022-09-25T08:20:17;25.17;;;13.20;;
19358;SDS011;9815;52.334;20.890;2022-09-25T08:22:46;19.50;;;11.57;;
19358;SDS011;9815;52.334;20.890;2022-09-25T08:25:14;20.73;;;12.50;;
19358;SDS011;9815;52.334;20.890;2022-09-25T08:27:42;19.97;;;11.77;;
19358;SDS011;9815;52.334;20.890;2022-09-25T08:30:11;22.87;;;12.53;;
19358;SDS011;9815;52.334;20.890;2022-09-25T08:32:41;17.20;;;11.63;;
19358;SDS011;9815;52.334;20.890;2022-09-25T08:35:10;20.07;;;12.27;;
19358;SDS011;9815;52.334;20.890;2022-09-25T08:37:40;20.73;;;11.53;;
19358;SDS011;9815;52.334;20.890;2022-09-25T08:40:14;17.53;;;10.83;;
19358;SDS011;9815;52.334;20.890;2022-09-25T08:42:45;20.37;;;11.10;;
19358;SDS011;9815;52.334;20.890;2022-09-25T08:45:25;21.43;;;11.33;;
19358;SDS011;9815;52.334;20.890;2022-09-25T08:48:20;24.50;;;13.07;;
19358;SDS011;9815;52.334;20.890;2022-09-25T08:51:11;18.67;;;10.77;;
19358;SDS011;9815;52.334;20.890;2022-09-25T08:53:39;20.37;;;11.13;;
19358;SDS011;9815;52.334;20.890;2022-09-25T08:56:09;20.03;;;11.20;;
19358;SDS011;9815;52.334;20.890;2022-09-25T08:58:44;16.23;;;9.67;;
19358;SDS011;9815;52.334;20.890;2022-09-25T09:01:18;28.43;;;15.13;;
19358;SDS011;9815;52.334;20.890;2022-09-25T09:03:51;18.97;;;10.93;;
19358;SDS011;9815;52.334;20.890;2022-09-25T09:06:24;19.13;;;10.83;;
19358;SDS011;9815;52.334;20.890;2022-09-25T09:08:56;17.17;;;11.00;;
19358;SDS011;9815;52.334;20.890;2022-09-25T09:11:29;52.37;;;28.67;;
19358;SDS011;9815;52.334;20.890;2022-09-25T09:14:03;34.07;;;15.03;;
19358;SDS011;9815;52.334;20.890;2022-09-25T09:16:35;40.23;;;14.13;;
19358;SDS011;9815;52.334;20.890;2022-09-25T09:19:08;47.97;;;15.67;;
19358;SDS011;9815;52.334;20.890;2022-09-25T09:21:40;19.60;;;11.93;;
19358;SDS011;9815;52.334;20.890;2022-09-25T09:24:14;21.47;;;11.83;;
19358;SDS011;9815;52.334;20.890;2022-09-25T09:29:51;14.57;;;9.00;;
19358;SDS011;9815;52.334;20.890;2022-09-25T09:32:35;15.47;;;7.87;;
19358;SDS011;9815;52.334;20.890;2022-09-25T09:35:19;12.90;;;7.57;;
19358;SDS011;9815;52.334;20.890;2022-09-25T09:38:02;12.03;;;7.07;;
19358;SDS011;9815;52.334;20.890;2022-09-25T09:40:45;12.37;;;6.73;;
19358;SDS011;9815;52.334;20.890;2022-09-25T09:43:34;10.30;;;6.20;;
19358;SDS011;9815;52.334;20.890;2022-09-25T09:46:15;10.50;;;6.53;;
19358;SDS011;9815;52.334;20.890;2022-09-25T09:48:52;9.50;;;6.27;;
19358;SDS011;9815;52.334;20.890;2022-09-25T09:51:30;9.53;;;5.93;;
19358;SDS011;9815;52.334;20.890;2022-09-25T09:54:04;9.97;;;6.03;;
19358;SDS011;9815;52.334;20.890;2022-09-25T09:56:39;9.73;;;5.63;;
19358;SDS011;9815;52.334;20.890;2022-09-25T09:59:11;10.17;;;6.13;;
19358;SDS011;9815;52.334;20.890;2022-09-25T10:01:45;8.90;;;5.80;;
19358;SDS011;9815;52.334;20.890;2022-09-25T10:04:27;8.97;;;5.73;;
19358;SDS011;9815;52.334;20.890;2022-09-25T10:07:02;10.53;;;6.47;;
19358;SDS011;9815;52.334;20.890;2022-09-25T10:09:33;10.27;;;6.77;;
19358;SDS011;9815;52.334;20.890;2022-09-25T10:12:04;11.80;;;6.23;;
19358;SDS011;9815;52.334;20.890;2022-09-25T10:14:38;8.80;;;5.47;;
19358;SDS011;9815;52.334;20.890;2022-09-25T10:17:09;9.47;;;5.50;;
19358;SDS011;9815;52.334;20.890;2022-09-25T10:19:42;8.90;;;5.67;;
19358;SDS011;9815;52.334;20.890;2022-09-25T10:22:15;9.53;;;5.33;;
19358;SDS011;9815;52.334;20.890;2022-09-25T10:24:51;10.77;;;5.27;;
19358;SDS011;9815;52.334;20.890;2022-09-25T10:27:27;8.33;;;5.47;;
19358;SDS011;9815;52.334;20.890;2022-09-25T10:30:03;9.13;;;5.20;;
19358;SDS011;9815;52.334;20.890;2022-09-25T10:32:45;7.60;;;5.00;;
19358;SDS011;9815;52.334;20.890;2022-09-25T10:35:24;7.63;;;5.10;;
19358;SDS011;9815;52.334;20.890;2022-09-25T10:37:56;6.93;;;4.63;;
19358;SDS011;9815;52.334;20.890;2022-09-25T10:40:29;7.57;;;4.23;;
19358;SDS011;9815;52.334;20.890;2022-09-25T10:43:02;7.40;;;4.97;;
19358;SDS011;9815;52.334;20.890;2022-09-25T10:45:49;8.60;;;4.93;;
19358;SDS011;9815;52.334;20.890;2022-09-25T10:48:32;6.60;;;4.60;;
19358;SDS011;9815;52.334;20.890;2022-09-25T10:51:18;7.93;;;4.40;;
19358;SDS011;9815;52.334;20.890;2022-09-25T10:53:48;6.87;;;4.73;;
19358;SDS011;9815;52.334;20.890;2022-09-25T10:56:19;8.83;;;4.87;;
19358;SDS011;9815;52.334;20.890;2022-09-25T10:58:52;7.53;;;4.63;;
19358;SDS011;9815;52.334;20.890;2022-09-25T11:01:28;8.40;;;3.73;;
19358;SDS011;9815;52.334;20.890;2022-09-25T11:04:02;9.80;;;4.53;;
19358;SDS011;9815;52.334;20.890;2022-09-25T11:06:34;6.70;;;4.10;;
19358;SDS011;9815;52.334;20.890;2022-09-25T11:09:05;9.07;;;5.10;;
19358;SDS011;9815;52.334;20.890;2022-09-25T11:11:37;9.90;;;4.60;;
19358;SDS011;9815;52.334;20.890;2022-09-25T11:14:06;7.40;;;3.90;;
19358;SDS011;9815;52.334;20.890;2022-09-25T11:16:47;7.10;;;4.27;;
19358;SDS011;9815;52.334;20.890;2022-09-25T11:19:20;6.20;;;4.07;;
19358;SDS011;9815;52.334;20.890;2022-09-25T11:21:53;6.43;;;4.40;;
19358;SDS011;9815;52.334;20.890;2022-09-25T11:24:29;7.80;;;4.43;;
19358;SDS011;9815;52.334;20.890;2022-09-25T11:27:15;8.17;;;4.80;;
19358;SDS011;9815;52.334;20.890;2022-09-25T11:29:49;9.20;;;4.57;;
19358;SDS011;9815;52.334;20.890;2022-09-25T11:32:28;8.47;;;4.70;;
19358;SDS011;9815;52.334;20.890;2022-09-25T11:38:14;8.90;;;4.93;;
19358;SDS011;9815;52.334;20.890;2022-09-25T11:41:11;7.27;;;4.80;;
19358;SDS011;9815;52.334;20.890;2022-09-25T11:43:53;5.70;;;4.17;;
19358;SDS011;9815;52.334;20.890;2022-09-25T11:46:35;7.43;;;4.47;;
19358;SDS011;9815;52.334;20.890;2022-09-25T11:49:11;7.17;;;4.37;;
19358;SDS011;9815;52.334;20.890;2022-09-25T11:54:55;5.90;;;4.27;;
19358;SDS011;9815;52.334;20.890;2022-09-25T11:57:36;7.37;;;4.80;;
19358;SDS011;9815;52.334;20.890;2022-09-25T12:00:14;7.03;;;5.03;;
19358;SDS011;9815;52.334;20.890;2022-09-25T12:02:57;8.23;;;5.00;;
19358;SDS011;9815;52.334;20.890;2022-09-25T12:05:46;8.67;;;4.40;;
19358;SDS011;9815;52.334;20.890;2022-09-25T12:08:34;6.57;;;4.13;;
19358;SDS011;9815;52.334;20.890;2022-09-25T12:11:13;5.80;;;3.77;;
19358;SDS011;9815;52.334;20.890;2022-09-25T12:13:51;6.30;;;4.37;;
19358;SDS011;9815;52.334;20.890;2022-09-25T12:16:27;7.40;;;3.70;;
19358;SDS011;9815;52.334;20.890;2022-09-25T12:19:12;5.73;;;4.07;;
19358;SDS011;9815;52.334;20.890;2022-09-25T12:21:54;6.87;;;3.77;;
19358;SDS011;9815;52.334;20.890;2022-09-25T12:24:30;7.23;;;4.30;;
19358;SDS011;9815;52.334;20.890;2022-09-25T12:27:09;6.00;;;3.83;;
19358;SDS011;9815;52.334;20.890;2022-09-25T12:29:46;7.53;;;4.00;;
19358;SDS011;9815;52.334;20.890;2022-09-25T12:32:36;7.97;;;4.23;;
19358;SDS011;9815;52.334;20.890;2022-09-25T12:35:26;8.37;;;3.57;;
19358;SDS011;9815;52.334;20.890;2022-09-25T12:38:04;5.47;;;4.00;;
19358;SDS011;9815;52.334;20.890;2022-09-25T12:40:39;7.83;;;4.33;;
19358;SDS011;9815;52.334;20.890;2022-09-25T12:43:12;7.37;;;4.07;;
19358;SDS011;9815;52.334;20.890;2022-09-25T12:45:50;9.07;;;3.90;;
19358;SDS011;9815;52.334;20.890;2022-09-25T12:48:25;7.40;;;4.17;;
19358;SDS011;9815;52.334;20.890;2022-09-25T12:51:00;5.77;;;3.87;;
19358;SDS011;9815;52.334;20.890;2022-09-25T12:53:37;5.47;;;3.60;;
19358;SDS011;9815;52.334;20.890;2022-09-25T12:56:12;5.50;;;3.63;;
19358;SDS011;9815;52.334;20.890;2022-09-25T12:58:45;7.03;;;3.80;;
19358;SDS011;9815;52.334;20.890;2022-09-25T13:01:26;5.27;;;3.67;;
19358;SDS011;9815;52.334;20.890;2022-09-25T13:04:03;6.90;;;3.90;;
19358;SDS011;9815;52.334;20.890;2022-09-25T13:06:49;6.00;;;3.87;;
19358;SDS011;9815;52.334;20.890;2022-09-25T13:09:23;6.53;;;4.00;;
19358;SDS011;9815;52.334;20.890;2022-09-25T13:11:57;7.33;;;4.30;;
19358;SDS011;9815;52.334;20.890;2022-09-25T13:14:30;6.67;;;4.10;;
19358;SDS011;9815;52.334;20.890;2022-09-25T13:17:01;6.27;;;4.40;;
19358;SDS011;9815;52.334;20.890;2022-09-25T13:19:31;7.20;;;4.10;;
19358;SDS011;9815;52.334;20.890;2022-09-25T13:22:01;8.87;;;4.87;;
19358;SDS011;9815;52.334;20.890;2022-09-25T13:24:36;6.50;;;4.60;;
19358;SDS011;9815;52.334;20.890;2022-09-25T13:27:11;7.83;;;5.40;;
19358;SDS011;9815;52.334;20.890;2022-09-25T13:29:49;7.33;;;5.13;;
19358;SDS011;9815;52.334;20.890;2022-09-25T13:32:19;6.83;;;4.67;;
19358;SDS011;9815;52.334;20.890;2022-09-25T13:34:52;7.33;;;4.90;;
19358;SDS011;9815;52.334;20.890;2022-09-25T13:37:24;7.63;;;5.67;;
19358;SDS011;9815;52.334;20.890;2022-09-25T13:39:54;7.97;;;4.60;;
19358;SDS011;9815;52.334;20.890;2022-09-25T13:42:42;6.80;;;4.83;;
19358;SDS011;9815;52.334;20.890;2022-09-25T13:45:26;7.50;;;4.57;;
19358;SDS011;9815;52.334;20.890;2022-09-25T13:48:07;9.00;;;5.20;;
19358;SDS011;9815;52.334;20.890;2022-09-25T13:50:43;10.00;;;5.37;;
19358;SDS011;9815;52.334;20.890;2022-09-25T13:53:13;6.67;;;4.93;;
19358;SDS011;9815;52.334;20.890;2022-09-25T13:58:59;8.50;;;5.70;;
19358;SDS011;9815;52.334;20.890;2022-09-25T14:01:46;9.43;;;5.07;;
19358;SDS011;9815;52.334;20.890;2022-09-25T14:04:24;8.70;;;5.10;;
19358;SDS011;9815;52.334;20.890;2022-09-25T14:07:05;8.87;;;5.60;;
19358;SDS011;9815;52.334;20.890;2022-09-25T14:09:41;9.33;;;4.80;;
19358;SDS011;9815;52.334;20.890;2022-09-25T14:12:13;7.63;;;4.90;;
19358;SDS011;9815;52.334;20.890;2022-09-25T14:14:50;8.93;;;5.10;;
19358;SDS011;9815;52.334;20.890;2022-09-25T14:17:22;9.60;;;5.00;;
19358;SDS011;9815;52.334;20.890;2022-09-25T14:19:55;10.20;;;5.10;;
19358;SDS011;9815;52.334;20.890;2022-09-25T14:22:34;8.57;;;4.83;;
19358;SDS011;9815;52.334;20.890;2022-09-25T14:25:26;10.63;;;4.60;;
19358;SDS011;9815;52.334;20.890;2022-09-25T14:27:58;7.77;;;5.50;;
19358;SDS011;9815;52.334;20.890;2022-09-25T14:30:27;7.43;;;4.93;;
19358;SDS011;9815;52.334;20.890;2022-09-25T14:33:10;7.83;;;5.17;;
19358;SDS011;9815;52.334;20.890;2022-09-25T14:35:52;11.23;;;6.13;;
19358;SDS011;9815;52.334;20.890;2022-09-25T14:41:31;9.73;;;5.30;;
19358;SDS011;9815;52.334;20.890;2022-09-25T14:44:36;7.63;;;5.17;;
19358;SDS011;9815;52.334;20.890;2022-09-25T14:47:34;7.63;;;5.10;;
19358;SDS011;9815;52.334;20.890;2022-09-25T14:50:04;11.43;;;6.13;;
19358;SDS011;9815;52.334;20.890;2022-09-25T14:52:38;31.53;;;15.43;;
19358;SDS011;9815;52.334;20.890;2022-09-25T14:55:11;20.23;;;10.93;;
19358;SDS011;9815;52.334;20.890;2022-09-25T14:57:47;19.60;;;9.87;;
19358;SDS011;9815;52.334;20.890;2022-09-25T15:00:18;18.03;;;9.80;;
19358;SDS011;9815;52.334;20.890;2022-09-25T15:02:49;19.77;;;10.27;;
19358;SDS011;9815;52.334;20.890;2022-09-25T15:05:28;20.53;;;10.70;;
19358;SDS011;9815;52.334;20.890;2022-09-25T15:07:58;17.70;;;8.37;;
19358;SDS011;9815;52.334;20.890;2022-09-25T15:10:31;11.07;;;6.50;;
19358;SDS011;9815;52.334;20.890;2022-09-25T15:13:04;16.57;;;7.97;;
19358;SDS011;9815;52.334;20.890;2022-09-25T15:15:34;12.20;;;6.67;;
19358;SDS011;9815;52.334;20.890;2022-09-25T15:18:06;11.97;;;7.80;;
19358;SDS011;9815;52.334;20.890;2022-09-25T15:20:41;15.33;;;9.03;;
19358;SDS011;9815;52.334;20.890;2022-09-25T15:23:13;14.30;;;8.30;;